Time;durP1;ratioP1;P1;durP2;ratioP2;P2;SDS_P1;SDS_P2;PMS_P1;PMS_P2;Temp;Humidity;BMP_temperature;BMP_pressure;BME280_temperature;BME280_humidity;BME280_pressure;Samples;Min_cycle;Max_cycle;Signal;HPM_P1;HPM_P2
2021/05/01 00:01:15;;;;;;;19.07;11.48;;;;;;;8.89;80.55;100393.97;3692671;79;35059;-84
2021/05/01 00:06:16;;;;;;;16.95;11.00;;;;;;;8.72;80.62;100387.60;3643803;79;98681;-85
2021/05/01 00:11:18;;;;;;;17.70;11.28;;;;;;;8.57;80.89;100377.52;3722940;78;26030;-84
2021/05/01 00:16:19;;;;;;;17.30;11.30;;;;;;;8.43;81.43;100383.54;3721558;79;98769;-84
2021/05/01 00:21:20;;;;;;;16.93;10.50;;;;;;;8.22;81.69;100391.92;3731327;78;25920;-84
2021/05/01 00:26:21;;;;;;;20.37;11.47;;;;;;;8.23;82.39;100388.05;3709318;79;98704;-86
2021/05/01 00:31:21;;;;;;;17.43;9.97;;;;;;;8.18;82.35;100392.42;3729818;79;33170;-84
2021/05/01 00:36:22;;;;;;;17.27;10.33;;;;;;;8.19;82.18;100394.77;3722368;77;98742;-86
2021/05/01 00:41:24;;;;;;;19.33;11.00;;;;;;;8.22;82.31;100379.58;3725512;78;32691;-84
2021/05/01 00:46:25;;;;;;;18.10;10.80;;;;;;;8.18;82.27;100373.23;3729937;77;98953;-84
2021/05/01 00:51:25;;;;;;;22.57;12.53;;;;;;;8.13;82.36;100356.47;3740947;77;32756;-85
2021/05/01 00:56:27;;;;;;;25.97;14.53;;;;;;;8.10;82.27;100364.07;3724494;78;99155;-83
2021/05/01 01:01:28;;;;;;;27.07;14.07;;;;;;;8.04;82.57;100369.63;3738107;78;27615;-84
2021/05/01 01:06:29;;;;;;;19.97;11.80;;;;;;;7.90;82.50;100383.63;3735199;77;98876;-83
2021/05/01 01:11:30;;;;;;;33.80;16.90;;;;;;;7.88;82.87;100374.95;3747211;77;25922;-84
2021/05/01 01:16:32;;;;;;;29.42;16.17;;;;;;;7.78;83.13;100370.03;3730574;78;98491;-84
2021/05/01 01:21:45;;;;;;;27.03;15.87;;;;;;;7.82;83.13;100386.78;3737183;77;25924;-84
2021/05/01 01:26:46;;;;;;;33.55;17.12;;;;;;;7.80;83.19;100389.66;3728846;78;98832;-83
2021/05/01 01:31:47;;;;;;;28.80;16.40;;;;;;;7.72;83.09;100387.91;3727382;78;27161;-84
2021/05/01 01:36:48;;;;;;;27.57;15.93;;;;;;;7.59;83.22;100389.20;3714514;79;98503;-84
2021/05/01 01:41:48;;;;;;;22.73;14.63;;;;;;;7.62;83.13;100387.09;3728922;78;26013;-86
2021/05/01 01:46:49;;;;;;;24.20;13.93;;;;;;;7.61;83.16;100399.21;3725346;77;98949;-87
2021/05/01 01:51:50;;;;;;;25.00;15.20;;;;;;;7.57;83.01;100392.86;3660823;79;26228;-84
2021/05/01 01:56:51;;;;;;;25.77;15.15;;;;;;;7.51;83.22;100385.50;3702234;77;98918;-84
2021/05/01 02:01:52;;;;;;;21.90;12.90;;;;;;;7.54;82.98;100399.06;3703406;79;33325;-85
2021/05/01 02:06:52;;;;;;;26.10;14.10;;;;;;;7.54;82.82;100397.69;3690259;79;98632;-85
2021/05/01 02:11:56;;;;;;;22.07;13.50;;;;;;;7.51;82.82;100398.39;3666549;79;33349;-84
2021/05/01 02:16:57;;;;;;;19.90;12.93;;;;;;;7.49;82.75;100402.08;3687284;79;98630;-85
2021/05/01 02:21:57;;;;;;;18.90;11.87;;;;;;;7.40;83.01;100405.57;3668720;79;33337;-83
2021/05/01 02:26:58;;;;;;;19.57;13.27;;;;;;;7.37;83.15;100412.55;3626040;80;98589;-85
2021/05/01 02:31:59;;;;;;;25.30;14.47;;;;;;;7.47;83.00;100431.17;3625006;80;33709;-84
2021/05/01 02:37:00;;;;;;;21.68;12.15;;;;;;;7.44;83.08;100426.98;3620449;80;98257;-85
2021/05/01 02:42:01;;;;;;;22.23;12.07;;;;;;;7.43;82.94;100422.67;3629970;80;33755;-83
2021/05/01 02:47:02;;;;;;;20.00;13.23;;;;;;;7.39;83.07;100408.90;3576938;81;98004;-85
2021/05/01 02:52:03;;;;;;;22.47;13.77;;;;;;;7.38;83.14;100388.72;3701212;79;25878;-84
2021/05/01 02:57:05;;;;;;;21.68;13.62;;;;;;;7.33;83.64;100373.93;3686891;78;98666;-84
2021/05/01 03:02:05;;;;;;;23.13;14.33;;;;;;;7.30;83.49;100378.77;3702218;79;32309;-84
2021/05/01 03:07:06;;;;;;;27.63;15.60;;;;;;;7.31;83.75;100381.72;3694461;77;98628;-83
2021/05/01 03:12:07;;;;;;;28.13;14.57;;;;;;;7.31;83.47;100378.39;3699540;79;31733;-84
2021/05/01 03:17:08;;;;;;;23.40;14.77;;;;;;;7.32;83.57;100381.34;3689186;79;98578;-84
2021/05/01 03:22:09;;;;;;;22.37;14.70;;;;;;;7.32;83.56;100388.77;3698857;79;31749;-84
2021/05/01 03:27:10;;;;;;;23.17;14.67;;;;;;;7.29;83.65;100375.78;3680546;77;98724;-84
2021/05/01 03:32:11;;;;;;;23.90;15.57;;;;;;;7.25;83.79;100361.25;3699313;78;32110;-84
2021/05/01 03:37:12;;;;;;;24.83;15.60;;;;;;;7.22;83.94;100355.10;3678719;79;98793;-84
2021/05/01 03:42:13;;;;;;;29.67;16.03;;;;;;;7.21;83.89;100347.45;3605951;81;31345;-84
2021/05/01 03:47:14;;;;;;;25.70;16.27;;;;;;;7.15;84.64;100359.05;3696626;78;98826;-83
2021/05/01 03:52:15;;;;;;;28.10;17.57;;;;;;;7.19;84.38;100377.72;3693362;79;35050;-83
2021/05/01 03:57:16;;;;;;;29.80;17.62;;;;;;;7.20;84.33;100389.66;3686928;79;98758;-83
2021/05/01 04:02:17;;;;;;;28.70;16.93;;;;;;;7.15;84.44;100379.58;3695680;79;34942;-82
2021/05/01 04:07:18;;;;;;;32.70;17.50;;;;;;;7.14;84.79;100379.36;3694974;79;98665;-84
2021/05/01 04:12:19;;;;;;;31.80;18.50;;;;;;;7.09;84.46;100381.00;3698127;79;35065;-84
2021/05/01 04:17:20;;;;;;;27.60;16.77;;;;;;;7.12;84.64;100376.17;3676302;79;98518;-84
2021/05/01 04:22:24;;;;;;;34.23;19.43;;;;;;;7.14;84.41;100391.67;3705517;78;35013;-83
2021/05/01 04:27:25;;;;;;;34.50;19.87;;;;;;;7.12;84.42;100378.91;3691429;77;98318;-84
2021/05/01 04:32:25;;;;;;;29.67;17.53;;;;;;;7.11;84.70;100386.90;3651397;80;35048;-83
2021/05/01 04:37:26;;;;;;;33.38;18.50;;;;;;;7.13;84.50;100391.43;3693975;79;98426;-83
2021/05/01 04:42:27;;;;;;;34.97;19.37;;;;;;;7.10;84.83;100389.42;3692950;79;35449;-83
2021/05/01 04:47:28;;;;;;;34.90;19.53;;;;;;;7.09;84.51;100393.31;3645806;79;98380;-84
2021/05/01 04:52:30;;;;;;;31.30;18.97;;;;;;;7.05;84.69;100385.02;3728355;78;34951;-84
2021/05/01 04:57:31;;;;;;;32.83;19.57;;;;;;;7.03;84.64;100394.14;3718842;77;98604;-83
2021/05/01 05:02:32;;;;;;;33.30;19.23;;;;;;;7.00;84.65;100386.66;3730992;78;35000;-83
2021/05/01 05:07:33;;;;;;;34.07;20.13;;;;;;;6.97;84.84;100378.33;3650976;80;99041;-83
2021/05/01 05:12:34;;;;;;;35.57;18.50;;;;;;;6.94;84.83;100372.22;3726131;78;35482;-83
2021/05/01 05:17:36;;;;;;;33.75;18.85;;;;;;;6.93;85.01;100391.93;3651636;79;98793;-85
2021/05/01 05:22:36;;;;;;;33.00;18.63;;;;;;;6.97;84.72;100407.87;3721254;78;26486;-85
2021/05/01 05:27:37;;;;;;;33.97;18.57;;;;;;;7.04;84.71;100415.47;3718798;79;98851;-83
2021/05/01 05:32:38;;;;;;;34.90;20.03;;;;;;;7.03;84.59;100413.89;3728956;77;33223;-85
2021/05/01 05:37:38;;;;;;;29.57;17.83;;;;;;;7.04;84.78;100414.09;3719324;79;98534;-82
2021/05/01 05:42:42;;;;;;;33.87;19.90;;;;;;;7.00;84.73;100422.23;3727013;78;32920;-84
2021/05/01 05:47:42;;;;;;;43.60;25.70;;;;;;;7.03;84.74;100437.14;3701824;78;98783;-84
2021/05/01 05:52:43;;;;;;;39.03;22.57;;;;;;;7.05;84.79;100415.12;3683780;80;32900;-83
2021/05/01 05:57:49;;;;;;;33.57;20.60;;;;;;;7.11;84.69;100410.16;3671722;79;98433;-84
2021/05/01 06:02:52;;;;;;;35.37;20.13;;;;;;;7.10;84.57;100420.89;3679473;79;26933;-84
2021/05/01 06:08:00;;;;;;;32.45;19.73;;;;;;;7.10;84.58;100426.37;3669921;77;98331;-84
2021/05/01 06:13:04;;;;;;;30.70;18.00;;;;;;;7.15;84.45;100424.14;3686307;79;31243;-83
2021/05/01 06:18:06;;;;;;;33.07;18.53;;;;;;;7.20;84.59;100415.66;3673710;79;98541;-83
2021/05/01 06:23:07;;;;;;;34.10;18.70;;;;;;;7.26;84.62;100425.19;3680121;80;26831;-83
2021/05/01 06:28:07;;;;;;;33.10;19.60;;;;;;;7.32;84.58;100428.47;3669822;78;98348;-85
2021/05/01 06:33:13;;;;;;;31.87;18.73;;;;;;;7.36;84.30;100421.92;3597783;81;32686;-84
2021/05/01 06:38:14;;;;;;;29.70;17.23;;;;;;;7.44;84.15;100415.47;3676200;79;98761;-84
2021/05/01 06:43:31;;;;;;;29.40;17.13;;;;;;;7.52;84.18;100413.70;3681811;80;33295;-84
2021/05/01 06:48:34;;;;;;;29.37;17.20;;;;;;;7.66;84.32;100396.20;3705018;78;98723;-84
2021/05/01 06:53:36;;;;;;;28.93;16.37;;;;;;;7.83;83.85;100405.38;3666781;79;31783;-85
2021/05/01 06:58:40;;;;;;;27.27;17.17;;;;;;;7.79;83.62;100401.19;3695213;77;98757;-84
2021/05/01 07:03:47;;;;;;;30.10;16.87;;;;;;;7.86;83.24;100411.52;3705032;79;32693;-85
2021/05/01 07:08:48;;;;;;;29.63;17.57;;;;;;;7.94;83.29;100423.64;3694832;78;98746;-83
2021/05/01 07:13:50;;;;;;;31.80;18.13;;;;;;;8.05;83.08;100427.39;3699315;79;26295;-85
2021/05/01 07:18:51;;;;;;;29.57;18.32;;;;;;;8.14;82.78;100431.30;3660900;79;98657;-84
2021/05/01 07:23:51;;;;;;;34.87;18.97;;;;;;;8.28;82.59;100431.62;3706746;79;26625;-83
2021/05/01 07:28:55;;;;;;;29.83;17.30;;;;;;;8.44;82.55;100421.34;3686808;78;98611;-83
2021/05/01 07:33:58;;;;;;;30.87;18.23;;;;;;;8.51;82.07;100425.61;3700122;78;25953;-84
2021/05/01 07:39:01;;;;;;;33.63;19.57;;;;;;;8.52;81.70;100421.70;3662835;79;98911;-81
2021/05/01 07:44:02;;;;;;;29.73;17.23;;;;;;;8.61;81.56;100420.31;3701214;79;33307;-83
2021/05/01 07:49:07;;;;;;;32.38;18.92;;;;;;;8.56;81.15;100426.69;3655070;79;98871;-82
2021/05/01 07:54:08;;;;;;;28.90;17.20;;;;;;;8.55;81.40;100451.14;3704086;79;26901;-82
2021/05/01 07:59:10;;;;;;;27.63;16.43;;;;;;;8.61;81.22;100434.03;3695524;78;98475;-83
2021/05/01 08:04:10;;;;;;;32.93;17.07;;;;;;;8.68;81.02;100430.03;3704213;79;26336;-83
2021/05/01 08:09:11;;;;;;;29.17;16.73;;;;;;;8.73;80.93;100448.17;3659252;78;98599;-84
2021/05/01 08:14:12;;;;;;;30.77;17.10;;;;;;;8.79;80.49;100448.86;3698827;79;32830;-85
2021/05/01 08:19:14;;;;;;;30.53;16.63;;;;;;;8.81;80.55;100454.80;3686158;78;98884;-83
2021/05/01 08:24:15;;;;;;;33.80;17.03;;;;;;;8.85;80.40;100448.00;3702019;79;32681;-83
2021/05/01 08:29:15;;;;;;;30.77;16.85;;;;;;;9.00;80.57;100459.45;3693573;78;98994;-84
2021/05/01 08:34:16;;;;;;;28.67;17.37;;;;;;;9.11;80.31;100449.45;3701275;79;32752;-84
2021/05/01 08:39:17;;;;;;;31.47;18.07;;;;;;;9.18;80.06;100439.38;3662542;79;98948;-84
2021/05/01 08:44:17;;;;;;;27.85;16.48;;;;;;;9.14;79.48;100444.58;3627276;80;32742;-83
2021/05/01 08:49:18;;;;;;;33.67;18.53;;;;;;;9.29;79.83;100447.22;3592153;81;98503;-84
2021/05/01 08:54:19;;;;;;;29.73;16.17;;;;;;;9.33;78.45;100459.62;3680745;80;25956;-84
2021/05/01 08:59:20;;;;;;;33.93;17.80;;;;;;;9.33;78.45;100459.62;3696504;78;98286;-84
2021/05/01 09:04:20;;;;;;;32.37;18.73;;;;;;;9.37;79.45;100468.73;3682778;80;26908;-83
2021/05/01 09:09:27;;;;;;;30.90;17.70;;;;;;;9.38;79.23;100468.33;3671984;79;98342;-83
2021/05/01 09:14:29;;;;;;;34.88;18.25;;;;;;;9.57;78.82;100466.89;3672083;80;28134;-84
2021/05/01 09:19:37;;;;;;;32.28;18.10;;;;;;;9.59;78.26;100459.66;3669719;77;98337;-84
2021/05/01 09:24:43;;;;;;;34.13;18.60;;;;;;;9.64;78.73;100460.69;3590670;81;27641;-84
2021/05/01 09:29:44;;;;;;;37.65;18.90;;;;;;;9.54;77.81;100451.13;3678165;79;98317;-83
2021/05/01 09:34:49;;;;;;;33.80;17.43;;;;;;;9.57;78.29;100442.16;3684759;78;27610;-83
2021/05/01 09:39:55;;;;;;;33.20;18.50;;;;;;;9.62;77.77;100439.67;3588989;80;98608;-83
2021/05/01 09:45:19;;;;;;;29.85;17.02;;;;;;;9.66;78.29;100437.17;3681210;80;27652;-83
2021/05/01 09:50:26;;;;;;;32.60;17.10;;;;;;;9.81;78.18;100425.83;3678269;78;98696;-83
2021/05/01 09:55:50;;;;;;;28.35;16.17;;;;;;;9.67;77.07;100416.80;3683479;80;28432;-82
2021/05/01 10:00:54;;;;;;;29.43;16.50;;;;;;;9.76;77.67;100420.05;3678967;79;98433;-82
2021/05/01 10:05:59;;;;;;;29.67;16.03;;;;;;;9.85;77.76;100413.70;3675196;79;98777;-85
2021/05/01 10:11:11;;;;;;;37.57;18.33;;;;;;;10.01;77.42;100412.14;3683639;80;28224;-83
2021/05/01 10:16:12;;;;;;;31.97;17.60;;;;;;;9.92;77.03;100415.77;3670303;78;98801;-84
2021/05/01 10:21:26;;;;;;;41.90;20.80;;;;;;;9.81;77.09;100417.58;3687922;78;26538;-82
2021/05/01 10:26:33;;;;;;;30.73;17.40;;;;;;;9.85;78.19;100419.78;3674940;77;98805;-84
2021/05/01 10:31:53;;;;;;;35.37;17.90;;;;;;;10.09;77.14;100420.73;3686973;79;27262;-84
2021/05/01 10:36:54;;;;;;;31.83;18.77;;;;;;;9.93;77.06;100418.12;3677986;79;98927;-83
2021/05/01 10:41:59;;;;;;;31.70;19.30;;;;;;;9.90;78.06;100419.45;3680383;80;28422;-84
2021/05/01 10:47:10;;;;;;;31.68;18.05;;;;;;;10.03;78.15;100424.95;3586350;80;98728;-83
2021/05/01 10:52:19;;;;;;;30.20;18.30;;;;;;;10.16;78.30;100429.87;3719892;77;27492;-85
2021/05/01 10:57:20;;;;;;;32.00;19.02;;;;;;;10.28;78.15;100418.62;3719465;77;98786;-83
2021/05/01 11:02:25;;;;;;;33.03;17.40;;;;;;;10.31;77.98;100420.60;3660907;80;26048;-84
2021/05/01 11:07:52;;;;;;;30.60;18.10;;;;;;;10.43;78.02;100416.82;3724863;78;98641;-85
2021/05/01 11:12:55;;;;;;;27.70;16.33;;;;;;;10.45;77.62;100405.64;3599386;80;27083;-83
2021/05/01 11:18:08;;;;;;;29.90;17.40;;;;;;;10.46;77.83;100389.34;3689047;78;98647;-83
2021/05/01 11:23:15;;;;;;;36.33;18.67;;;;;;;10.64;77.83;100395.04;3728849;78;27526;-83
2021/05/01 11:28:18;;;;;;;29.40;16.23;;;;;;;10.86;76.52;100392.09;3655519;79;99126;-83
2021/05/01 11:33:22;;;;;;;30.97;18.63;;;;;;;11.09;76.93;100371.25;3732261;78;27391;-83
2021/05/01 11:38:33;;;;;;;27.50;15.85;;;;;;;11.45;76.87;100395.92;3726625;77;98907;-83
2021/05/01 11:43:37;;;;;;;25.13;14.80;;;;;;;11.86;76.52;100413.15;3734187;79;27998;-83
2021/05/01 11:48:52;;;;;;;23.33;15.03;;;;;;;12.18;75.26;100412.14;3702061;78;98824;-84
2021/05/01 11:54:04;;;;;;;24.50;14.70;;;;;;;12.02;73.71;100399.84;3700570;79;27451;-84
2021/05/01 11:59:14;;;;;;;24.60;14.65;;;;;;;12.05;73.80;100405.97;3691306;78;98982;-84
2021/05/01 12:04:18;;;;;;;32.40;16.80;;;;;;;12.30;73.68;100420.64;3704468;79;28399;-82
2021/05/01 12:09:28;;;;;;;24.77;15.60;;;;;;;12.22;71.81;100409.39;3695597;78;98734;-84
2021/05/01 12:14:29;;;;;;;34.10;18.10;;;;;;;12.14;72.54;100405.01;3698202;79;27459;-84
2021/05/01 12:19:30;;;;;;;25.23;14.90;;;;;;;12.30;72.37;100415.12;3689032;79;98760;-84
2021/05/01 12:24:32;;;;;;;31.97;19.10;;;;;;;12.34;71.72;100431.12;3616764;80;26514;-83
2021/05/01 12:29:35;;;;;;;44.77;24.47;;;;;;;12.32;71.73;100416.32;3696660;79;98488;-84
2021/05/01 12:34:56;;;;;;;28.30;16.97;;;;;;;12.41;71.76;100423.66;3702829;79;27522;-84
2021/05/01 12:40:04;;;;;;;29.90;15.87;;;;;;;12.32;71.11;100416.93;3697490;77;98605;-84
2021/05/01 12:45:34;;;;;;;26.10;16.40;;;;;;;12.32;71.11;100416.93;3695655;79;28747;-83
2021/05/01 12:50:36;;;;;;;26.73;14.77;;;;;;;12.30;71.66;100420.07;3655614;79;98981;-85
2021/05/01 12:56:17;;;;;;;29.83;16.97;;;;;;;12.35;71.47;100414.75;3651402;79;26944;-84
2021/05/01 13:01:31;;;;;;;23.07;12.73;;;;;;;12.46;71.69;100403.96;3651054;79;28258;-83
2021/05/01 13:06:33;;;;;;;23.30;14.00;;;;;;;12.43;71.75;100397.05;3649055;79;99222;-83
2021/05/01 13:11:33;;;;;;;24.93;14.83;;;;;;;12.21;70.25;100375.48;3692222;78;26230;-84
2021/05/01 13:16:56;;;;;;;25.02;14.55;;;;;;;12.05;71.30;100371.49;3681406;78;99065;-85
2021/05/01 13:22:02;;;;;;;21.77;12.00;;;;;;;12.19;71.66;100365.44;3679430;78;27699;-86
2021/05/01 13:27:05;;;;;;;24.13;13.37;;;;;;;12.27;71.54;100352.45;3672923;79;99107;-86
2021/05/01 13:32:08;;;;;;;22.23;12.63;;;;;;;12.22;71.55;100338.42;3691057;79;28271;-86
2021/05/01 13:37:10;;;;;;;24.05;13.25;;;;;;;12.27;70.72;100340.04;3682776;78;98951;-83
2021/05/01 13:42:15;;;;;;;22.03;13.23;;;;;;;12.27;70.54;100339.43;3695485;78;27606;-84
